KMTH

The Florida Keys Marathon International Airport

Marathon, Florida, USA
METAR KMTH 191253Z AUTO 21006KT 10SM CLR 29/24 A2996 RMK AO2 SLP144 T02890244
Observed Flight Rules
Sep-19 @ 12:53 UTC (49 minutes ago) Visual Flight Rules
Wind Visibility Clouds
210° at 6 knots 10 miles
  • Clear skies
Temperatures Readings
Current 29°C / 84°F
Dewpoint 24°C / 75°F
Humidity 74%
Altimeter 29.96" Hg
Pressure 1014.4 hPa
Elevation 2
METAR KMTH 191253Z AUTO 21006KT 10SM CLR 29/24 A2996 RMK AO2 SLP144 T02890244
Observed Flight Rules
Sep-19 @ 12:53 UTC
(49 minutes ago)
VFR
Wind Visibility
210° at 6 knots 10 miles
Clouds
  • Clear skies
Temperature Dewpoint
29°C / 84°F 24°C / 75°F
Humidity Altimeter Pressure
74% 29.96" Hg 1014.4 hPa